Time;durP1;ratioP1;P1;durP2;ratioP2;P2;SDS_P1;SDS_P2;PMS_P1;PMS_P2;Temp;Humidity;BMP_temperature;BMP_pressure;BME280_temperature;BME280_humidity;BME280_pressure;Samples;Min_cycle;Max_cycle;Signal;HPM_P1;HPM_P2
2021/04/04 00:01:10;;;;;;;17.48;12.63;;;;;;;3.50;62.13;96827.03;1686675;85;21130;-83
2021/04/04 00:03:37;;;;;;;20.32;13.68;;;;;;;3.49;62.27;96828.41;1686748;85;21188;-85
2021/04/04 00:06:05;;;;;;;17.12;10.93;;;;;;;3.49;62.79;96827.09;1678489;85;21598;-85
2021/04/04 00:08:32;;;;;;;18.60;12.15;;;;;;;3.49;62.47;96827.09;1663883;85;21167;-85
2021/04/04 00:11:00;;;;;;;20.90;12.70;;;;;;;3.50;62.58;96831.39;1646132;87;21195;-82
2021/04/04 00:13:28;;;;;;;19.42;13.00;;;;;;;3.51;62.75;96831.77;1666679;86;21161;-84
2021/04/04 00:15:55;;;;;;;19.37;12.18;;;;;;;3.53;62.92;96831.23;1651588;87;21290;-84
2021/04/04 00:18:22;;;;;;;21.57;12.60;;;;;;;3.54;62.95;96830.30;1681663;85;21701;-85
2021/04/04 00:21:08;;;;;;;19.73;12.28;;;;;;;3.63;63.16;96832.84;1854051;77;24949;-85
2021/04/04 00:23:37;;;;;;;20.70;13.30;;;;;;;3.57;62.95;96838.78;1830125;78;21141;-82
2021/04/04 00:26:05;;;;;;;21.27;12.33;;;;;;;3.57;62.94;96837.48;1799412;78;21580;-81
2021/04/04 00:28:35;;;;;;;16.93;11.15;;;;;;;3.56;62.93;96829.76;1830253;78;21232;-82
2021/04/04 00:31:05;;;;;;;18.50;12.10;;;;;;;3.55;63.05;96835.42;1829084;78;21263;-84
2021/04/04 00:33:35;;;;;;;21.00;14.13;;;;;;;3.55;63.11;96835.89;1830914;78;21299;-84
2021/04/04 00:36:03;;;;;;;18.75;12.68;;;;;;;3.54;63.15;96836.82;1859168;77;21104;-83
2021/04/04 00:38:34;;;;;;;16.17;11.22;;;;;;;3.54;63.18;96839.42;1864340;77;21246;-84
2021/04/04 00:41:03;;;;;;;18.02;12.10;;;;;;;3.50;63.00;96837.45;1863938;77;21250;-85
2021/04/04 00:43:30;;;;;;;17.07;11.88;;;;;;;3.48;63.33;96843.21;1864423;77;21112;-82
2021/04/04 00:45:58;;;;;;;16.50;11.33;;;;;;;3.49;63.45;96844.03;1759923;80;21149;-86
2021/04/04 00:48:26;;;;;;;19.35;11.63;;;;;;;3.49;63.93;96833.17;1745218;81;21316;-84
2021/04/04 00:50:54;;;;;;;20.40;12.25;;;;;;;3.51;63.72;96833.07;1719145;81;21309;-83
2021/04/04 00:53:21;;;;;;;21.10;11.60;;;;;;;3.50;63.79;96828.34;1732222;81;21163;-84
2021/04/04 00:55:49;;;;;;;21.25;11.68;;;;;;;3.56;64.02;96824.55;1748121;82;21143;-84
2021/04/04 00:58:17;;;;;;;16.82;10.80;;;;;;;3.58;64.12;96824.83;1747870;82;21182;-85
2021/04/04 01:00:44;;;;;;;14.65;10.25;;;;;;;3.59;64.09;96821.30;1748025;82;21183;-83
2021/04/04 01:03:12;;;;;;;16.37;10.70;;;;;;;3.59;64.12;96821.30;1748146;82;21139;-85
2021/04/04 01:05:48;;;;;;;16.32;10.58;;;;;;;3.61;64.24;96824.29;1776867;81;21103;-84
2021/04/04 01:08:12;;;;;;;19.23;12.37;;;;;;;3.63;64.72;96821.97;1777767;81;21560;-83
2021/04/04 01:10:44;;;;;;;19.23;12.88;;;;;;;3.53;64.39;96823.41;1765496;81;21111;-84
2021/04/04 01:13:22;;;;;;;17.40;11.43;;;;;;;3.45;64.30;96822.52;1753387;81;21273;-83
2021/04/04 01:16:02;;;;;;;17.70;11.95;;;;;;;3.37;64.42;96814.30;1736057;81;21134;-85
2021/04/04 01:18:47;;;;;;;18.82;12.20;;;;;;;3.31;64.33;96823.30;1718234;84;21250;-84
2021/04/04 01:21:29;;;;;;;19.05;11.73;;;;;;;3.25;64.37;96830.98;1708225;83;21190;-82
2021/04/04 01:24:32;;;;;;;19.12;11.83;;;;;;;3.13;64.46;96832.50;1708356;84;21644;-83
2021/04/04 01:27:16;;;;;;;18.17;12.55;;;;;;;3.02;65.17;96828.80;1708446;83;21298;-84
2021/04/04 01:29:45;;;;;;;19.85;12.78;;;;;;;2.93;65.37;96832.73;1759347;80;21256;-83
2021/04/04 01:32:12;;;;;;;17.40;11.95;;;;;;;2.86;65.12;96830.08;1758867;81;21119;-83
2021/04/04 01:34:40;;;;;;;19.40;13.03;;;;;;;2.82;65.07;96841.12;1758843;81;21132;-84
2021/04/04 01:37:11;;;;;;;19.98;13.65;;;;;;;2.80;65.20;96846.87;1759684;80;21107;-86
2021/04/04 01:39:49;;;;;;;19.27;11.63;;;;;;;2.76;65.18;96844.89;1758772;82;21155;-84
2021/04/04 01:42:19;;;;;;;16.10;10.60;;;;;;;2.72;65.01;96843.83;1755882;82;21147;-83
2021/04/04 01:44:49;;;;;;;16.48;11.22;;;;;;;2.64;64.61;96845.08;1758813;81;21270;-83
2021/04/04 01:47:18;;;;;;;20.48;13.25;;;;;;;2.60;64.82;96847.92;1758576;82;21262;-84
2021/04/04 01:49:49;;;;;;;19.35;11.25;;;;;;;2.53;65.18;96843.49;1758785;81;21279;-83
2021/04/04 01:52:16;;;;;;;19.45;12.07;;;;;;;2.48;65.32;96845.51;1759200;79;21120;-82
2021/04/04 01:54:45;;;;;;;20.10;12.10;;;;;;;2.44;65.62;96847.43;1777501;79;21123;-83
2021/04/04 01:57:15;;;;;;;17.87;12.15;;;;;;;2.41;65.55;96848.88;1821435;79;21541;-84
2021/04/04 01:59:45;;;;;;;17.35;10.93;;;;;;;2.38;65.83;96847.72;1790515;79;21281;-84
2021/04/04 02:02:13;;;;;;;20.55;11.10;;;;;;;2.38;66.00;96849.02;1775510;79;21265;-84
2021/04/04 02:04:42;;;;;;;15.32;10.70;;;;;;;2.39;66.14;96849.41;1821821;79;21168;-84
2021/04/04 02:07:14;;;;;;;17.27;11.57;;;;;;;2.36;66.07;96851.33;1821805;78;21116;-84
2021/04/04 02:09:42;;;;;;;16.67;10.18;;;;;;;2.32;66.36;96848.88;1821709;78;21120;-83
2021/04/04 02:12:12;;;;;;;18.90;10.98;;;;;;;2.34;66.61;96849.64;1781473;79;21111;-85
2021/04/04 02:14:43;;;;;;;17.15;10.95;;;;;;;2.40;66.89;96851.09;1764068;79;21111;-84
2021/04/04 02:17:12;;;;;;;19.80;12.37;;;;;;;2.46;66.89;96857.27;1763131;81;21243;-83
2021/04/04 02:19:40;;;;;;;17.62;10.65;;;;;;;2.46;66.92;96855.14;1801346;79;21159;-83
2021/04/04 02:22:08;;;;;;;18.07;11.33;;;;;;;2.43;66.83;96861.35;1827073;79;21222;-84
2021/04/04 02:24:36;;;;;;;17.10;11.40;;;;;;;2.42;66.89;96862.27;1827402;79;21131;-82
2021/04/04 02:27:03;;;;;;;15.20;11.63;;;;;;;2.46;67.29;96873.36;1827434;79;21267;-82
2021/04/04 02:29:31;;;;;;;16.67;11.18;;;;;;;2.49;67.16;96871.44;1765767;79;21287;-83
2021/04/04 02:32:02;;;;;;;18.45;11.35;;;;;;;2.50;67.08;96870.99;1767993;79;21139;-83
2021/04/04 02:34:37;;;;;;;17.37;11.48;;;;;;;2.48;67.08;96872.35;1797173;79;21144;-84
2021/04/04 02:37:09;;;;;;;18.77;11.23;;;;;;;2.47;66.91;96881.55;1787996;78;21266;-82
2021/04/04 02:39:42;;;;;;;18.32;12.90;;;;;;;2.38;66.70;96878.94;1765856;81;21464;-81
2021/04/04 02:42:11;;;;;;;17.30;11.97;;;;;;;2.31;66.81;96869.33;1766255;79;21122;-81
2021/04/04 02:44:40;;;;;;;17.87;11.33;;;;;;;2.25;66.96;96878.72;1767320;79;21128;-82
2021/04/04 02:47:12;;;;;;;21.20;12.70;;;;;;;2.21;66.90;96876.35;1765841;81;21144;-81
2021/04/04 02:49:44;;;;;;;16.37;11.50;;;;;;;2.14;67.19;96876.67;1765694;81;21139;-81
2021/04/04 02:52:15;;;;;;;21.20;13.25;;;;;;;2.09;67.14;96874.73;1766395;81;21556;-83
2021/04/04 02:54:43;;;;;;;19.67;11.55;;;;;;;2.02;67.33;96872.06;1774889;79;21242;-82
2021/04/04 02:57:11;;;;;;;17.40;11.30;;;;;;;1.97;67.25;96881.86;1766350;81;21113;-84
2021/04/04 02:59:46;;;;;;;18.30;11.33;;;;;;;1.90;67.58;96879.19;1766332;81;21155;-83
2021/04/04 03:02:18;;;;;;;18.65;12.93;;;;;;;1.87;67.36;96874.52;1766273;81;21127;-82
2021/04/04 03:04:49;;;;;;;22.07;12.70;;;;;;;1.81;67.49;96877.39;1782210;79;21123;-82
2021/04/04 03:07:20;;;;;;;16.82;11.12;;;;;;;1.80;67.83;96873.58;1827431;78;21092;-83
2021/04/04 03:09:51;;;;;;;19.10;12.00;;;;;;;1.76;67.66;96876.79;1822815;79;21119;-83
2021/04/04 03:12:25;;;;;;;23.02;11.55;;;;;;;1.76;68.23;96876.79;1826977;78;21135;-83
2021/04/04 03:14:57;;;;;;;17.98;12.88;;;;;;;1.73;68.09;96870.43;1827034;78;21107;-83
2021/04/04 03:17:26;;;;;;;15.95;11.12;;;;;;;1.71;68.42;96874.41;1789449;79;21261;-82
2021/04/04 03:19:54;;;;;;;19.52;12.58;;;;;;;1.73;68.32;96873.03;1764624;81;21151;-83
2021/04/04 03:22:23;;;;;;;17.17;11.80;;;;;;;1.75;68.60;96872.98;1767882;78;21107;-81
2021/04/04 03:24:52;;;;;;;18.82;12.43;;;;;;;1.78;68.66;96877.56;1767687;81;21251;-84
2021/04/04 03:27:22;;;;;;;24.63;11.22;;;;;;;1.82;68.68;96875.19;1767648;80;21258;-83
2021/04/04 03:29:50;;;;;;;23.25;12.20;;;;;;;1.86;68.73;96874.57;1805665;78;21510;-82
2021/04/04 03:32:18;;;;;;;17.77;11.08;;;;;;;1.88;68.75;96871.45;1830565;78;21234;-82
2021/04/04 03:34:46;;;;;;;21.70;11.60;;;;;;;1.86;68.70;96872.83;1830215;78;21092;-83
2021/04/04 03:37:14;;;;;;;17.73;12.28;;;;;;;1.86;68.88;96875.87;1830569;78;21234;-83
2021/04/04 03:39:44;;;;;;;17.82;11.35;;;;;;;1.90;69.09;96876.13;1831123;78;21156;-82
2021/04/04 03:42:12;;;;;;;20.72;11.50;;;;;;;1.94;69.20;96881.56;1830956;78;21238;-81
2021/04/04 03:44:41;;;;;;;17.45;11.88;;;;;;;1.94;69.25;96872.47;1813023;78;21290;-82
2021/04/04 03:47:10;;;;;;;17.92;11.90;;;;;;;1.89;69.09;96881.41;1766805;81;21136;-82
2021/04/04 03:49:40;;;;;;;17.35;12.20;;;;;;;1.83;69.01;96883.37;1828668;78;21124;-82
2021/04/04 03:52:08;;;;;;;21.68;12.90;;;;;;;1.77;69.73;96890.61;1830678;78;21135;-82
2021/04/04 03:54:36;;;;;;;19.07;11.83;;;;;;;1.71;68.91;96896.50;1830850;78;21261;-82
2021/04/04 03:57:06;;;;;;;22.52;12.95;;;;;;;1.65;68.83;96894.20;1830796;78;21128;-82
2021/04/04 03:59:38;;;;;;;18.77;14.33;;;;;;;1.59;68.99;96895.78;1829481;78;21520;-82
2021/04/04 04:02:07;;;;;;;25.02;14.93;;;;;;;1.55;69.00;96904.17;1786296;78;21238;-81
2021/04/04 04:04:36;;;;;;;21.95;13.75;;;;;;;1.50;69.06;96903.56;1767184;81;21597;-82
2021/04/04 04:07:05;;;;;;;23.15;14.68;;;;;;;1.45;69.09;96901.63;1767010;81;21171;-81
2021/04/04 04:09:34;;;;;;;23.22;15.85;;;;;;;1.44;69.20;96899.11;1767167;81;21294;-82
2021/04/04 04:12:04;;;;;;;18.20;12.60;;;;;;;1.44;69.28;96903.83;1728280;83;21201;-83
2021/04/04 04:14:33;;;;;;;24.90;14.85;;;;;;;1.45;69.12;96908.11;1703869;83;21293;-83
2021/04/04 04:17:03;;;;;;;25.10;15.68;;;;;;;1.46;69.39;96909.80;1754564;80;21147;-80
2021/04/04 04:19:31;;;;;;;20.60;14.13;;;;;;;1.48;69.45;96913.18;1761715;81;21179;-83
2021/04/04 04:21:59;;;;;;;21.37;12.63;;;;;;;1.52;69.59;96912.13;1782839;80;21155;-82
2021/04/04 04:24:26;;;;;;;18.37;13.03;;;;;;;1.58;69.30;96914.87;1820199;78;21135;-82
2021/04/04 04:26:55;;;;;;;20.68;13.25;;;;;;;1.64;69.25;96915.05;1820923;79;21124;-82
2021/04/04 04:29:23;;;;;;;22.50;14.65;;;;;;;1.71;69.21;96916.47;1818169;79;21139;-80
2021/04/04 04:31:55;;;;;;;20.88;13.75;;;;;;;1.80;69.55;96920.36;1758248;80;21559;-83
2021/04/04 04:34:26;;;;;;;24.35;14.05;;;;;;;1.87;69.16;96922.61;1758105;82;21259;-83
2021/04/04 04:36:55;;;;;;;20.32;14.00;;;;;;;1.98;69.21;96925.98;1757818;82;21135;-81
2021/04/04 04:39:24;;;;;;;21.77;15.20;;;;;;;2.13;69.28;96924.39;1813619;79;21136;-83
2021/04/04 04:41:53;;;;;;;22.90;15.00;;;;;;;2.28;69.21;96927.14;1746285;80;21249;-82
2021/04/04 04:44:25;;;;;;;18.80;13.40;;;;;;;2.45;69.35;96934.97;1815498;79;21549;-84
2021/04/04 04:46:53;;;;;;;18.45;13.18;;;;;;;2.55;69.65;96939.23;1821375;79;21618;-83
2021/04/04 04:49:23;;;;;;;19.80;12.50;;;;;;;2.68;69.44;96943.36;1821447;78;21285;-82
2021/04/04 04:51:51;;;;;;;19.57;13.03;;;;;;;2.77;69.06;96948.57;1807131;79;21089;-83
2021/04/04 04:54:18;;;;;;;17.27;12.20;;;;;;;2.85;68.82;96950.31;1787248;79;21080;-83
2021/04/04 04:56:49;;;;;;;18.27;12.30;;;;;;;2.93;68.68;96952.50;1821192;78;21093;-81
2021/04/04 04:59:17;;;;;;;19.90;13.93;;;;;;;3.00;68.44;96956.94;1821248;79;21152;-82
2021/04/04 05:01:48;;;;;;;23.05;13.83;;;;;;;3.05;68.39;96960.16;1821000;79;21136;-82
2021/04/04 05:04:15;;;;;;;22.42;15.10;;;;;;;3.10;68.16;96960.75;1780757;79;21246;-82
2021/04/04 05:06:50;;;;;;;27.13;15.08;;;;;;;3.15;68.12;96964.42;1758159;82;21254;-82
2021/04/04 05:09:18;;;;;;;24.18;14.63;;;;;;;3.19;68.01;96966.78;1789257;79;21246;-82
2021/04/04 05:11:49;;;;;;;23.10;13.90;;;;;;;3.24;67.94;96961.33;1821089;78;21573;-83
2021/04/04 05:14:16;;;;;;;20.37;14.07;;;;;;;3.32;67.85;96966.14;1794986;79;21256;-82
2021/04/04 05:16:46;;;;;;;21.85;14.18;;;;;;;3.39;67.70;96967.02;1789545;80;21110;-83
2021/04/04 05:19:14;;;;;;;20.62;13.95;;;;;;;3.46;67.64;96970.62;1768384;79;21124;-82
2021/04/04 05:21:43;;;;;;;18.25;13.62;;;;;;;3.55;67.63;96974.86;1766052;81;21285;-83
2021/04/04 05:24:14;;;;;;;22.48;14.00;;;;;;;3.66;67.56;96973.44;1818235;78;21243;-83
2021/04/04 05:26:47;;;;;;;22.10;14.13;;;;;;;3.75;67.33;96969.03;1808907;78;21125;-83
2021/04/04 05:29:18;;;;;;;21.07;13.65;;;;;;;3.82;67.54;96970.84;1798684;80;21251;-83
2021/04/04 05:31:49;;;;;;;22.90;15.40;;;;;;;3.93;67.26;96975.45;1798531;80;21128;-82
2021/04/04 05:34:23;;;;;;;21.55;15.65;;;;;;;4.01;67.24;96975.42;1773703;78;21084;-81
2021/04/04 05:37:03;;;;;;;28.38;16.82;;;;;;;4.11;66.79;96973.60;1798829;80;21149;-83
2021/04/04 05:39:34;;;;;;;26.70;16.02;;;;;;;4.18;66.54;96980.15;1797013;78;21189;-82
2021/04/04 05:42:08;;;;;;;23.57;15.85;;;;;;;4.27;66.46;96982.72;1767328;81;21250;-82
2021/04/04 05:44:58;;;;;;;20.90;15.00;;;;;;;4.33;66.10;96981.88;1767177;81;21306;-82
2021/04/04 05:47:43;;;;;;;22.48;15.50;;;;;;;4.43;66.06;96980.05;1760088;78;21265;-82
2021/04/04 05:50:58;;;;;;;22.20;15.65;;;;;;;4.57;65.69;96975.34;1805004;78;21258;-83
2021/04/04 05:54:04;;;;;;;23.25;17.07;;;;;;;4.84;65.32;96978.13;1851203;76;24548;-82
2021/04/04 05:56:51;;;;;;;23.85;16.20;;;;;;;4.92;65.19;96982.91;1855149;77;21135;-83
2021/04/04 05:59:43;;;;;;;22.85;16.87;;;;;;;5.03;64.95;96978.34;1834668;77;21281;-80
2021/04/04 06:02:51;;;;;;;24.65;17.02;;;;;;;5.16;64.85;96981.42;1803575;79;21115;-81
2021/04/04 06:05:51;;;;;;;;;;;;;;;5.18;64.55;96960.42;1806148;77;21274;-81
2021/04/04 06:08:55;;;;;;;27.48;15.18;;;;;;;5.52;64.15;96980.56;1797849;80;20139;-84
2021/04/04 06:11:49;;;;;;;25.23;16.00;;;;;;;5.62;64.20;96984.29;1800629;77;21195;-82
2021/04/04 06:14:37;;;;;;;22.73;15.40;;;;;;;5.80;63.85;96988.00;1795564;77;21270;-82
2021/04/04 06:17:34;;;;;;;22.32;14.75;;;;;;;5.97;63.40;96986.95;1793957;80;21163;-82
2021/04/04 06:23:32;;;;;;;19.98;15.63;;;;;;;6.54;61.81;96984.61;1790237;80;26372;-80
2021/04/04 06:26:22;;;;;;;19.15;14.05;;;;;;;6.76;62.13;96987.12;1763574;81;21273;-82
2021/04/04 06:29:21;;;;;;;22.48;15.38;;;;;;;7.06;61.88;96986.02;1764396;81;21286;-80
2021/04/04 06:32:09;;;;;;;22.87;14.47;;;;;;;7.35;61.12;96988.44;1755896;81;21691;-81
2021/04/04 06:34:45;;;;;;;19.75;12.25;;;;;;;7.74;60.55;96997.55;1762104;81;21138;-79
2021/04/04 06:37:33;;;;;;;17.27;12.68;;;;;;;8.23;60.62;96999.31;1754011;81;21269;-80
2021/04/04 06:40:13;;;;;;;20.20;13.28;;;;;;;8.68;60.05;96984.73;1760208;81;21108;-79
2021/04/04 06:43:04;;;;;;;20.57;13.58;;;;;;;9.24;59.42;96989.77;1762477;81;21119;-83
2021/04/04 06:45:48;;;;;;;15.03;11.85;;;;;;;9.73;56.95;96983.33;1697315;84;21274;-82
2021/04/04 06:48:50;;;;;;;16.40;12.80;;;;;;;10.06;55.57;96991.31;1685702;84;21659;-80
2021/04/04 06:51:59;;;;;;;17.55;12.65;;;;;;;10.28;54.78;96993.05;1671358;84;21136;-90
2021/04/04 06:54:56;;;;;;;17.50;12.47;;;;;;;10.55;54.17;96999.70;1652709;86;21171;-88
2021/04/04 06:57:49;;;;;;;;;;;;;;;10.83;53.34;97000.07;1655573;86;21187;-86
2021/04/04 07:00:25;;;;;;;17.35;12.63;;;;;;;10.96;49.19;97002.52;1675067;86;20157;-88
2021/04/04 07:03:01;;;;;;;14.68;11.50;;;;;;;11.38;51.71;97000.70;1692472;84;21141;-84
2021/04/04 07:05:33;;;;;;;16.37;12.47;;;;;;;11.77;51.32;97001.86;1657896;86;21193;-79
2021/04/04 07:08:29;;;;;;;17.52;12.78;;;;;;;12.15;50.56;96999.84;1661514;86;21168;-80
2021/04/04 07:11:12;;;;;;;;;;;;;;;12.59;50.91;97002.14;1649023;87;21247;-81
2021/04/04 07:14:03;;;;;;;14.95;11.22;;;;;;;13.02;47.42;97001.38;1646339;87;20135;-81
2021/04/04 07:17:06;;;;;;;13.50;9.33;;;;;;;13.42;48.72;97002.16;1601028;89;21193;-81
2021/04/04 07:19:56;;;;;;;10.55;8.95;;;;;;;13.86;44.28;96995.79;1811850;79;24098;-82
2021/04/04 07:23:19;;;;;;;13.18;9.10;;;;;;;14.03;48.62;96998.16;1795352;80;21147;-80
2021/04/04 07:26:01;;;;;;;12.45;9.93;;;;;;;14.19;47.07;96990.05;1795560;80;21123;-82
2021/04/04 07:28:59;;;;;;;12.05;10.70;;;;;;;14.50;45.24;96991.04;1795576;80;21561;-81
2021/04/04 07:31:41;;;;;;;16.90;10.65;;;;;;;14.76;45.90;96992.96;1799894;78;21582;-81
2021/04/04 07:34:24;;;;;;;27.82;18.45;;;;;;;15.04;45.20;96997.66;1826900;78;21163;-81
2021/04/04 07:37:06;;;;;;;34.60;23.95;;;;;;;15.11;43.20;96992.58;1799144;78;21135;-80
2021/04/04 07:39:51;;;;;;;24.37;17.40;;;;;;;15.10;43.42;97003.70;1800560;79;21708;-80
2021/04/04 07:42:44;;;;;;;11.68;6.97;;;;;;;14.93;43.29;96996.60;1756216;79;21148;-80
2021/04/04 07:45:26;;;;;;;11.73;7.97;;;;;;;14.87;42.67;97002.02;1800754;80;21135;-81
2021/04/04 07:48:23;;;;;;;11.35;8.33;;;;;;;14.43;42.73;97008.55;1795184;78;21167;-80
2021/04/04 07:51:17;;;;;;;11.53;9.00;;;;;;;14.66;43.83;97008.46;1795458;78;21100;-82
2021/04/04 07:54:04;;;;;;;7.85;6.17;;;;;;;14.93;41.57;97004.05;1668187;86;21210;-82
2021/04/04 07:56:43;;;;;;;11.75;8.75;;;;;;;14.53;39.77;97004.83;1668189;86;21585;-82
2021/04/04 07:59:48;;;;;;;12.43;8.50;;;;;;;14.03;42.21;97001.28;1824083;77;24884;-81
2021/04/04 08:02:49;;;;;;;9.60;6.47;;;;;;;13.41;38.83;97005.27;1826897;78;21107;-81
2021/04/04 08:05:21;;;;;;;12.85;8.30;;;;;;;12.93;40.25;97008.83;1802387;78;21561;-81
2021/04/04 08:07:59;;;;;;;11.95;8.63;;;;;;;12.13;40.06;97016.31;1800075;79;21664;-82
2021/04/04 08:10:55;;;;;;;11.75;7.03;;;;;;;12.28;40.62;97011.98;1800669;78;21116;-81
2021/04/04 08:13:40;;;;;;;10.50;8.33;;;;;;;12.54;41.55;97006.99;1820125;78;21123;-81
2021/04/04 08:16:34;;;;;;;15.95;8.68;;;;;;;12.80;41.72;97007.79;1826890;78;21108;-83
2021/04/04 08:19:01;;;;;;;10.48;8.45;;;;;;;12.98;40.94;97002.61;1795206;80;21596;-81
2021/04/04 08:21:36;;;;;;;13.55;8.40;;;;;;;13.12;39.00;97012.78;1795542;80;21151;-82
2021/04/04 08:24:24;;;;;;;10.40;8.30;;;;;;;12.83;34.54;97008.81;1766551;80;21616;-84
2021/04/04 08:27:03;;;;;;;12.40;8.10;;;;;;;12.81;38.97;97023.51;1795417;80;21171;-81
2021/04/04 08:29:42;;;;;;;9.08;6.40;;;;;;;12.58;39.67;97016.33;1798862;80;21525;-82
2021/04/04 08:32:31;;;;;;;9.85;7.42;;;;;;;12.24;38.62;97014.53;1800608;79;21607;-84
2021/04/04 08:35:00;;;;;;;12.88;7.33;;;;;;;11.93;38.63;97023.31;1808391;78;21518;-83
2021/04/04 08:37:41;;;;;;;8.35;6.97;;;;;;;11.57;37.90;97011.02;1769228;78;21147;-82
2021/04/04 08:40:14;;;;;;;7.22;6.30;;;;;;;11.19;39.33;97012.46;1795509;80;21159;-82
2021/04/04 08:42:43;;;;;;;10.20;6.95;;;;;;;11.10;39.61;97019.33;1795630;80;21126;-83
2021/04/04 08:45:28;;;;;;;8.10;7.15;;;;;;;10.83;39.10;97024.62;1795590;80;21092;-82
2021/04/04 08:47:56;;;;;;;11.40;9.30;;;;;;;10.66;39.88;97017.27;1785116;80;21147;-81
2021/04/04 08:50:27;;;;;;;11.00;7.10;;;;;;;10.46;40.40;97019.72;1774832;80;21548;-82
2021/04/04 08:53:05;;;;;;;10.70;7.80;;;;;;;10.44;39.62;97019.04;1791419;80;21144;-83
2021/04/04 08:55:32;;;;;;;;;;;;;;;10.40;40.94;97022.87;1796793;79;21277;-83
2021/04/04 08:58:02;;;;;;;25.17;10.43;;;;;;;10.39;40.82;97017.23;1821356;79;20169;-81
2021/04/04 09:00:32;;;;;;;7.33;4.58;;;;;;;10.76;41.63;97012.91;1793895;79;21167;-81
2021/04/04 09:03:10;;;;;;;12.25;7.55;;;;;;;11.00;38.28;97015.78;1769123;81;21608;-82
2021/04/04 09:05:38;;;;;;;7.05;5.72;;;;;;;10.57;38.16;97010.47;1782528;79;21201;-79
2021/04/04 09:08:05;;;;;;;14.15;9.30;;;;;;;10.20;38.73;97006.83;1784680;79;21525;-79
2021/04/04 09:10:38;;;;;;;12.45;7.08;;;;;;;10.07;39.60;96998.25;1803341;79;21135;-79
2021/04/04 09:13:12;;;;;;;8.58;4.70;;;;;;;10.20;37.63;96994.98;1766924;80;21137;-80
2021/04/04 09:15:55;;;;;;;9.90;8.43;;;;;;;10.00;36.74;97001.36;1768949;81;21151;-79
2021/04/04 09:18:25;;;;;;;14.18;9.33;;;;;;;9.80;39.11;97002.09;1768684;81;21151;-80
2021/04/04 09:21:05;;;;;;;11.43;8.03;;;;;;;10.00;39.64;96990.00;1768649;81;21136;-80
2021/04/04 09:23:36;;;;;;;9.53;8.53;;;;;;;10.14;39.33;96996.80;1794184;79;21605;-78
2021/04/04 09:26:08;;;;;;;13.43;8.65;;;;;;;10.02;37.70;96988.09;1793686;79;21126;-79
2021/04/04 09:28:41;;;;;;;11.73;8.30;;;;;;;9.91;37.01;96988.92;1800187;79;21564;-81
2021/04/04 09:31:22;;;;;;;15.88;7.55;;;;;;;10.01;37.63;96994.31;1803549;79;21158;-81
2021/04/04 09:34:07;;;;;;;51.80;23.32;;;;;;;10.22;37.24;96991.75;1803640;79;21183;-81
2021/04/04 09:36:48;;;;;;;32.48;15.38;;;;;;;10.37;37.90;96987.07;1804385;79;21123;-81
2021/04/04 09:39:26;;;;;;;62.85;27.80;;;;;;;10.70;37.82;96990.53;1812354;79;21171;-81
2021/04/04 09:41:57;;;;;;;13.30;7.05;;;;;;;10.90;39.20;96988.05;1813693;79;21371;-80
2021/04/04 09:44:34;;;;;;;13.83;10.10;;;;;;;11.04;37.46;96987.70;1813298;79;21156;-80
2021/04/04 09:47:05;;;;;;;10.05;8.03;;;;;;;10.95;33.75;96985.84;1810293;79;21148;-81
2021/04/04 09:49:41;;;;;;;14.28;8.35;;;;;;;11.16;37.42;96976.63;1813677;79;21586;-80
2021/04/04 09:52:23;;;;;;;8.90;6.78;;;;;;;11.25;37.15;96969.72;1811843;79;21132;-81
2021/04/04 09:55:07;;;;;;;6.62;5.40;;;;;;;11.06;32.52;96977.05;1785852;79;21136;-80
2021/04/04 09:57:51;;;;;;;10.15;8.28;;;;;;;10.84;33.48;96965.66;1809617;79;21128;-81
2021/04/04 10:00:41;;;;;;;9.80;6.30;;;;;;;10.56;35.10;96973.22;1814434;79;21139;-82
2021/04/04 10:03:16;;;;;;;9.55;8.50;;;;;;;10.78;35.42;96968.31;1810270;79;21726;-82
2021/04/04 10:08:29;;;;;;;9.20;5.12;;;;;;;10.73;34.61;96963.06;1779582;79;24875;-81
2021/04/04 10:10:58;;;;;;;9.53;7.50;;;;;;;10.80;33.54;96966.04;1753760;82;21208;-81
2021/04/04 10:13:28;;;;;;;8.78;7.22;;;;;;;10.65;34.90;96962.88;1754335;82;21161;-81
2021/04/04 10:15:57;;;;;;;8.98;7.72;;;;;;;10.93;35.71;96958.29;1753806;82;21192;-81
2021/04/04 10:18:27;;;;;;;9.25;6.90;;;;;;;11.15;34.47;96959.13;1753367;81;21148;-80
2021/04/04 10:20:58;;;;;;;9.45;6.62;;;;;;;11.23;35.21;96962.41;1753367;81;21152;-79
2021/04/04 10:23:35;;;;;;;9.85;7.47;;;;;;;11.34;35.47;96953.10;1725700;82;21136;-80
2021/04/04 10:26:07;;;;;;;12.68;5.83;;;;;;;11.38;34.85;96962.91;1700491;83;21183;-80
2021/04/04 10:28:53;;;;;;;6.28;5.30;;;;;;;11.52;35.99;96953.33;1711464;84;21225;-84
2021/04/04 10:31:21;;;;;;;7.78;5.80;;;;;;;11.40;35.54;96960.52;1713784;82;21179;-85
2021/04/04 10:34:02;;;;;;;7.83;5.33;;;;;;;11.15;35.75;96956.95;1684666;85;21588;-82
2021/04/04 10:36:32;;;;;;;7.37;5.47;;;;;;;10.82;36.93;96957.03;1684612;85;21576;-80
2021/04/04 10:39:01;;;;;;;7.95;5.42;;;;;;;10.58;37.47;96952.84;1691154;82;21151;-80
2021/04/04 10:41:36;;;;;;;9.40;7.37;;;;;;;10.60;38.10;96951.39;1684155;84;21199;-79
2021/04/04 10:44:06;;;;;;;12.45;7.37;;;;;;;10.60;38.56;96953.56;1712811;82;21116;-80
2021/04/04 10:46:35;;;;;;;9.03;6.45;;;;;;;10.57;37.51;96941.12;1708413;84;21213;-82
2021/04/04 10:49:04;;;;;;;6.50;4.87;;;;;;;10.53;37.88;96938.38;1678051;85;21170;-83
2021/04/04 10:51:32;;;;;;;8.45;7.03;;;;;;;10.48;37.52;96941.88;1678538;85;21198;-84
2021/04/04 10:54:00;;;;;;;4.95;3.80;;;;;;;10.37;38.05;96938.33;1694859;84;21151;-82
2021/04/04 10:56:31;;;;;;;8.13;6.90;;;;;;;10.47;36.49;96939.71;1693315;85;21124;-87
2021/04/04 10:58:59;;;;;;;6.83;5.33;;;;;;;10.13;37.48;96920.06;1688193;83;21155;-88
2021/04/04 11:01:33;;;;;;;7.80;6.60;;;;;;;10.26;37.54;96945.73;1681269;83;21164;-85
2021/04/04 11:04:02;;;;;;;10.85;8.75;;;;;;;10.19;37.95;96932.72;1696306;83;21198;-88
2021/04/04 11:06:32;;;;;;;7.33;6.55;;;;;;;10.11;38.84;96932.05;1720861;83;21323;-86
2021/04/04 11:09:10;;;;;;;10.82;7.00;;;;;;;10.13;38.27;96934.05;1704102;84;21113;-86
2021/04/04 11:12:02;;;;;;;8.78;5.47;;;;;;;10.08;37.95;96932.28;1726681;83;21199;-87
2021/04/04 11:14:31;;;;;;;9.10;6.45;;;;;;;10.33;37.70;96921.55;1727466;83;21311;-88
2021/04/04 11:17:12;;;;;;;7.58;6.05;;;;;;;10.60;38.40;96921.94;1711854;83;21150;-88
2021/04/04 11:19:54;;;;;;;7.28;6.58;;;;;;;10.93;36.79;96924.01;1695456;84;21102;-87
2021/04/04 11:22:42;;;;;;;8.25;5.53;;;;;;;10.84;37.63;96915.56;1696369;85;21287;-89
2021/04/04 11:25:16;;;;;;;8.23;6.12;;;;;;;10.93;38.39;96922.69;1720850;83;21132;-88
2021/04/04 11:27:50;;;;;;;10.08;5.95;;;;;;;11.13;38.50;96919.34;1724587;83;21444;-87
2021/04/04 11:30:33;;;;;;;6.20;4.12;;;;;;;11.30;38.30;96922.69;1705616;82;21128;-88
2021/04/04 11:33:25;;;;;;;6.12;5.33;;;;;;;11.29;37.24;96910.45;1652763;82;21188;-89
2021/04/04 11:36:11;;;;;;;8.33;5.83;;;;;;;11.12;38.10;96913.21;1643201;87;21226;-83
2021/04/04 11:38:56;;;;;;;6.55;4.55;;;;;;;10.94;37.53;96907.72;1574491;89;21171;-89
2021/04/04 11:41:50;;;;;;;;;;;;;;;10.96;37.79;96918.12;1629735;88;21198;-85
2021/04/04 11:44:32;;;;;;;8.60;5.55;;;;;;;10.77;36.90;96913.91;1594646;90;20156;-88
2021/04/04 11:47:04;;;;;;;6.33;5.00;;;;;;;10.75;37.06;96904.47;1627136;88;21224;-87
2021/04/04 11:49:37;;;;;;;6.60;5.17;;;;;;;10.77;36.89;96907.81;1576027;90;22319;-87
2021/04/04 11:52:36;;;;;;;9.50;5.58;;;;;;;10.83;37.40;96903.33;1886909;76;22206;-87
2021/04/04 11:55:11;;;;;;;3.87;2.85;;;;;;;10.72;37.88;96900.77;1778810;80;21154;-91
2021/04/04 11:57:44;;;;;;;7.97;5.55;;;;;;;10.62;36.71;96898.89;1782939;80;21279;-91
2021/04/04 12:00:25;;;;;;;5.85;4.42;;;;;;;10.33;37.93;96892.57;1797189;80;21131;-89
2021/04/04 12:06:00;;;;;;;6.87;4.55;;;;;;;9.94;38.90;96897.86;1880091;75;24696;-88
2021/04/04 12:08:30;;;;;;;7.70;4.67;;;;;;;9.81;38.21;96894.06;1840080;77;21281;-82
2021/04/04 12:10:59;;;;;;;7.70;5.92;;;;;;;9.77;38.42;96893.11;1863774;77;21211;-90
2021/04/04 12:13:27;;;;;;;6.78;5.58;;;;;;;9.80;38.60;96888.90;1855679;77;21817;-83
2021/04/04 12:15:59;;;;;;;6.58;4.05;;;;;;;9.93;38.27;96890.09;1828810;78;21139;-82
2021/04/04 12:18:26;;;;;;;8.63;5.77;;;;;;;9.92;38.27;96881.83;1844170;77;21173;-87